sensor_id;sensor_type;location;lat;lon;timestamp;P1;durP1;ratioP1;P2;durP2;ratioP2
39956;SDS011;48483;44.640;7.494;2023-04-07T00:01:51;20.75;;;15.70;;
39956;SDS011;48483;44.640;7.494;2023-04-07T00:04:18;20.48;;;15.88;;
39956;SDS011;48483;44.640;7.494;2023-04-07T00:50:58;21.35;;;15.52;;
39956;SDS011;48483;44.640;7.494;2023-04-07T00:53:25;24.65;;;17.00;;
39956;SDS011;48483;44.640;7.494;2023-04-07T00:55:52;21.63;;;15.82;;
39956;SDS011;48483;44.640;7.494;2023-04-07T00:58:18;23.73;;;16.00;;
39956;SDS011;48483;44.640;7.494;2023-04-07T01:00:47;27.45;;;17.17;;
39956;SDS011;48483;44.640;7.494;2023-04-07T01:03:18;23.95;;;17.95;;
39956;SDS011;48483;44.640;7.494;2023-04-07T01:06:00;21.77;;;15.88;;
39956;SDS011;48483;44.640;7.494;2023-04-07T01:08:29;21.58;;;17.08;;
39956;SDS011;48483;44.640;7.494;2023-04-07T01:11:05;21.42;;;15.38;;
39956;SDS011;48483;44.640;7.494;2023-04-07T01:13:35;21.58;;;17.38;;
39956;SDS011;48483;44.640;7.494;2023-04-07T01:16:22;22.05;;;16.63;;
39956;SDS011;48483;44.640;7.494;2023-04-07T01:18:54;23.23;;;16.30;;
39956;SDS011;48483;44.640;7.494;2023-04-07T01:21:27;23.98;;;17.10;;
39956;SDS011;48483;44.640;7.494;2023-04-07T01:24:02;22.38;;;17.35;;
39956;SDS011;48483;44.640;7.494;2023-04-07T01:26:36;22.27;;;17.52;;
39956;SDS011;48483;44.640;7.494;2023-04-07T01:31:53;25.20;;;18.25;;
39956;SDS011;48483;44.640;7.494;2023-04-07T01:34:22;21.77;;;16.52;;
39956;SDS011;48483;44.640;7.494;2023-04-07T01:50:34;20.52;;;14.85;;
39956;SDS011;48483;44.640;7.494;2023-04-07T01:53:01;27.98;;;16.80;;
39956;SDS011;48483;44.640;7.494;2023-04-07T01:55:29;25.52;;;17.05;;
39956;SDS011;48483;44.640;7.494;2023-04-07T01:58:06;24.30;;;16.25;;
39956;SDS011;48483;44.640;7.494;2023-04-07T02:00:34;24.85;;;16.95;;
39956;SDS011;48483;44.640;7.494;2023-04-07T02:03:05;24.50;;;17.33;;
39956;SDS011;48483;44.640;7.494;2023-04-07T02:05:37;21.70;;;16.40;;
39956;SDS011;48483;44.640;7.494;2023-04-07T02:08:06;23.52;;;17.05;;
39956;SDS011;48483;44.640;7.494;2023-04-07T02:10:36;21.85;;;16.45;;
39956;SDS011;48483;44.640;7.494;2023-04-07T02:13:03;24.42;;;17.75;;
39956;SDS011;48483;44.640;7.494;2023-04-07T02:15:31;22.50;;;17.38;;
39956;SDS011;48483;44.640;7.494;2023-04-07T02:17:59;22.25;;;17.00;;
39956;SDS011;48483;44.640;7.494;2023-04-07T02:20:27;25.98;;;17.48;;
39956;SDS011;48483;44.640;7.494;2023-04-07T02:22:56;24.00;;;17.02;;
39956;SDS011;48483;44.640;7.494;2023-04-07T02:25:23;25.83;;;16.67;;
39956;SDS011;48483;44.640;7.494;2023-04-07T02:27:53;25.75;;;16.80;;
39956;SDS011;48483;44.640;7.494;2023-04-07T02:30:20;25.35;;;18.70;;
39956;SDS011;48483;44.640;7.494;2023-04-07T02:32:47;23.02;;;17.15;;
39956;SDS011;48483;44.640;7.494;2023-04-07T02:35:14;22.75;;;17.20;;
39956;SDS011;48483;44.640;7.494;2023-04-07T02:37:41;23.25;;;17.60;;
39956;SDS011;48483;44.640;7.494;2023-04-07T02:40:10;21.98;;;16.63;;
39956;SDS011;48483;44.640;7.494;2023-04-07T02:42:37;22.05;;;16.55;;
39956;SDS011;48483;44.640;7.494;2023-04-07T02:45:03;21.95;;;16.05;;
39956;SDS011;48483;44.640;7.494;2023-04-07T02:47:30;22.92;;;16.08;;
39956;SDS011;48483;44.640;7.494;2023-04-07T02:49:57;24.02;;;17.73;;
39956;SDS011;48483;44.640;7.494;2023-04-07T02:52:24;21.67;;;16.42;;
39956;SDS011;48483;44.640;7.494;2023-04-07T02:54:52;23.40;;;17.27;;
39956;SDS011;48483;44.640;7.494;2023-04-07T02:57:24;27.02;;;18.05;;
39956;SDS011;48483;44.640;7.494;2023-04-07T02:59:54;21.48;;;16.23;;
39956;SDS011;48483;44.640;7.494;2023-04-07T03:04:51;24.00;;;17.00;;
39956;SDS011;48483;44.640;7.494;2023-04-07T03:07:19;25.48;;;17.30;;
39956;SDS011;48483;44.640;7.494;2023-04-07T03:09:48;26.60;;;18.45;;
39956;SDS011;48483;44.640;7.494;2023-04-07T03:12:17;24.23;;;17.25;;
39956;SDS011;48483;44.640;7.494;2023-04-07T03:14:45;24.80;;;16.73;;
39956;SDS011;48483;44.640;7.494;2023-04-07T03:17:11;26.80;;;18.60;;
39956;SDS011;48483;44.640;7.494;2023-04-07T03:19:38;24.38;;;17.40;;
39956;SDS011;48483;44.640;7.494;2023-04-07T03:22:05;25.55;;;17.70;;
39956;SDS011;48483;44.640;7.494;2023-04-07T03:24:35;24.80;;;18.00;;
39956;SDS011;48483;44.640;7.494;2023-04-07T03:27:04;25.38;;;17.92;;
39956;SDS011;48483;44.640;7.494;2023-04-07T03:29:42;23.65;;;17.63;;
39956;SDS011;48483;44.640;7.494;2023-04-07T03:32:13;22.67;;;17.45;;
39956;SDS011;48483;44.640;7.494;2023-04-07T03:34:40;25.10;;;17.38;;
39956;SDS011;48483;44.640;7.494;2023-04-07T03:37:07;24.90;;;16.90;;
39956;SDS011;48483;44.640;7.494;2023-04-07T03:39:36;24.15;;;16.92;;
39956;SDS011;48483;44.640;7.494;2023-04-07T03:42:14;23.52;;;17.27;;
39956;SDS011;48483;44.640;7.494;2023-04-07T03:44:41;25.08;;;17.27;;
39956;SDS011;48483;44.640;7.494;2023-04-07T03:47:09;24.58;;;18.02;;
39956;SDS011;48483;44.640;7.494;2023-04-07T03:49:37;24.55;;;18.02;;
39956;SDS011;48483;44.640;7.494;2023-04-07T03:52:05;22.63;;;17.13;;
39956;SDS011;48483;44.640;7.494;2023-04-07T03:54:32;26.60;;;16.73;;
39956;SDS011;48483;44.640;7.494;2023-04-07T03:57:00;24.55;;;17.20;;
39956;SDS011;48483;44.640;7.494;2023-04-07T03:59:31;22.67;;;16.48;;
39956;SDS011;48483;44.640;7.494;2023-04-07T04:02:01;22.23;;;16.35;;
39956;SDS011;48483;44.640;7.494;2023-04-07T04:04:29;22.23;;;16.27;;
39956;SDS011;48483;44.640;7.494;2023-04-07T04:06:56;21.50;;;15.85;;
39956;SDS011;48483;44.640;7.494;2023-04-07T04:09:34;25.83;;;16.23;;
39956;SDS011;48483;44.640;7.494;2023-04-07T04:12:01;24.98;;;17.33;;
39956;SDS011;48483;44.640;7.494;2023-04-07T04:14:30;26.38;;;17.30;;
39956;SDS011;48483;44.640;7.494;2023-04-07T04:17:00;24.03;;;17.63;;
39956;SDS011;48483;44.640;7.494;2023-04-07T04:19:32;25.85;;;18.25;;
39956;SDS011;48483;44.640;7.494;2023-04-07T04:22:04;25.23;;;17.15;;
39956;SDS011;48483;44.640;7.494;2023-04-07T04:24:35;24.67;;;17.20;;
39956;SDS011;48483;44.640;7.494;2023-04-07T04:27:03;26.15;;;17.35;;
39956;SDS011;48483;44.640;7.494;2023-04-07T04:29:31;27.30;;;18.75;;
39956;SDS011;48483;44.640;7.494;2023-04-07T04:31:59;25.77;;;18.48;;
39956;SDS011;48483;44.640;7.494;2023-04-07T04:34:26;26.30;;;19.35;;
39956;SDS011;48483;44.640;7.494;2023-04-07T04:36:55;26.38;;;19.23;;
39956;SDS011;48483;44.640;7.494;2023-04-07T04:39:22;25.25;;;18.25;;
39956;SDS011;48483;44.640;7.494;2023-04-07T04:41:48;28.48;;;18.15;;
39956;SDS011;48483;44.640;7.494;2023-04-07T04:44:16;29.52;;;18.77;;
39956;SDS011;48483;44.640;7.494;2023-04-07T04:46:43;26.20;;;17.95;;
39956;SDS011;48483;44.640;7.494;2023-04-07T04:49:10;26.10;;;17.42;;
39956;SDS011;48483;44.640;7.494;2023-04-07T04:51:37;23.70;;;16.90;;
39956;SDS011;48483;44.640;7.494;2023-04-07T04:54:13;24.08;;;17.42;;
39956;SDS011;48483;44.640;7.494;2023-04-07T04:56:39;23.02;;;16.73;;
39956;SDS011;48483;44.640;7.494;2023-04-07T04:59:07;21.00;;;15.80;;
39956;SDS011;48483;44.640;7.494;2023-04-07T05:01:51;28.75;;;17.08;;
39956;SDS011;48483;44.640;7.494;2023-04-07T05:04:17;22.23;;;16.73;;
39956;SDS011;48483;44.640;7.494;2023-04-07T05:06:51;28.10;;;19.75;;
39956;SDS011;48483;44.640;7.494;2023-04-07T05:09:22;25.23;;;18.67;;
39956;SDS011;48483;44.640;7.494;2023-04-07T05:11:49;28.25;;;17.27;;
39956;SDS011;48483;44.640;7.494;2023-04-07T05:14:16;30.83;;;18.27;;
39956;SDS011;48483;44.640;7.494;2023-04-07T05:16:49;30.13;;;18.02;;
39956;SDS011;48483;44.640;7.494;2023-04-07T05:19:20;27.65;;;18.25;;
39956;SDS011;48483;44.640;7.494;2023-04-07T05:21:48;26.48;;;17.95;;
39956;SDS011;48483;44.640;7.494;2023-04-07T05:24:15;25.75;;;18.33;;
39956;SDS011;48483;44.640;7.494;2023-04-07T05:26:45;21.80;;;17.50;;
39956;SDS011;48483;44.640;7.494;2023-04-07T05:29:12;26.40;;;16.92;;
39956;SDS011;48483;44.640;7.494;2023-04-07T05:31:38;23.52;;;16.10;;
39956;SDS011;48483;44.640;7.494;2023-04-07T05:34:09;26.88;;;16.95;;
39956;SDS011;48483;44.640;7.494;2023-04-07T05:36:43;23.52;;;15.90;;
39956;SDS011;48483;44.640;7.494;2023-04-07T05:39:10;24.20;;;15.68;;
39956;SDS011;48483;44.640;7.494;2023-04-07T05:41:36;23.48;;;15.93;;
39956;SDS011;48483;44.640;7.494;2023-04-07T05:44:04;28.73;;;16.10;;
39956;SDS011;48483;44.640;7.494;2023-04-07T05:46:35;23.95;;;17.23;;
39956;SDS011;48483;44.640;7.494;2023-04-07T05:49:02;23.08;;;15.85;;
39956;SDS011;48483;44.640;7.494;2023-04-07T05:51:29;22.40;;;14.82;;
39956;SDS011;48483;44.640;7.494;2023-04-07T05:53:57;22.25;;;15.77;;
39956;SDS011;48483;44.640;7.494;2023-04-07T05:56:26;23.23;;;15.10;;
39956;SDS011;48483;44.640;7.494;2023-04-07T05:58:54;24.98;;;17.50;;
39956;SDS011;48483;44.640;7.494;2023-04-07T06:01:22;31.55;;;15.48;;
39956;SDS011;48483;44.640;7.494;2023-04-07T06:03:49;23.13;;;16.55;;
39956;SDS011;48483;44.640;7.494;2023-04-07T06:06:19;23.73;;;16.08;;
39956;SDS011;48483;44.640;7.494;2023-04-07T06:08:46;29.00;;;16.08;;
39956;SDS011;48483;44.640;7.494;2023-04-07T06:11:13;24.63;;;16.42;;
39956;SDS011;48483;44.640;7.494;2023-04-07T06:13:39;24.42;;;16.45;;
39956;SDS011;48483;44.640;7.494;2023-04-07T06:16:06;24.35;;;16.52;;
39956;SDS011;48483;44.640;7.494;2023-04-07T06:18:34;26.85;;;17.10;;
39956;SDS011;48483;44.640;7.494;2023-04-07T06:21:01;27.70;;;16.65;;
39956;SDS011;48483;44.640;7.494;2023-04-07T06:23:28;26.02;;;18.58;;
39956;SDS011;48483;44.640;7.494;2023-04-07T06:25:54;28.40;;;18.92;;
39956;SDS011;48483;44.640;7.494;2023-04-07T06:28:21;27.42;;;19.10;;
39956;SDS011;48483;44.640;7.494;2023-04-07T06:30:48;32.67;;;19.33;;
39956;SDS011;48483;44.640;7.494;2023-04-07T06:33:15;27.10;;;17.98;;
39956;SDS011;48483;44.640;7.494;2023-04-07T06:35:43;30.27;;;19.10;;
39956;SDS011;48483;44.640;7.494;2023-04-07T06:38:10;28.77;;;17.35;;
39956;SDS011;48483;44.640;7.494;2023-04-07T06:40:37;27.70;;;17.65;;
39956;SDS011;48483;44.640;7.494;2023-04-07T06:43:03;26.00;;;18.23;;
39956;SDS011;48483;44.640;7.494;2023-04-07T06:45:39;26.60;;;17.90;;
39956;SDS011;48483;44.640;7.494;2023-04-07T06:48:06;29.15;;;17.67;;
39956;SDS011;48483;44.640;7.494;2023-04-07T06:50:33;27.73;;;17.90;;
39956;SDS011;48483;44.640;7.494;2023-04-07T06:53:00;28.38;;;18.10;;
39956;SDS011;48483;44.640;7.494;2023-04-07T06:55:27;28.27;;;19.30;;
39956;SDS011;48483;44.640;7.494;2023-04-07T06:57:54;32.58;;;20.80;;
39956;SDS011;48483;44.640;7.494;2023-04-07T07:00:20;30.05;;;19.33;;
39956;SDS011;48483;44.640;7.494;2023-04-07T07:02:47;28.23;;;18.13;;
39956;SDS011;48483;44.640;7.494;2023-04-07T07:05:14;26.10;;;18.50;;
39956;SDS011;48483;44.640;7.494;2023-04-07T07:07:41;24.90;;;18.73;;
39956;SDS011;48483;44.640;7.494;2023-04-07T07:10:09;26.70;;;17.30;;
39956;SDS011;48483;44.640;7.494;2023-04-07T07:12:36;22.77;;;17.05;;
39956;SDS011;48483;44.640;7.494;2023-04-07T07:15:03;25.75;;;17.92;;
39956;SDS011;48483;44.640;7.494;2023-04-07T07:17:30;24.70;;;18.05;;
39956;SDS011;48483;44.640;7.494;2023-04-07T07:19:56;27.25;;;17.27;;
39956;SDS011;48483;44.640;7.494;2023-04-07T07:22:23;23.85;;;15.88;;
39956;SDS011;48483;44.640;7.494;2023-04-07T07:24:50;22.90;;;16.98;;
39956;SDS011;48483;44.640;7.494;2023-04-07T07:27:18;25.83;;;16.00;;
39956;SDS011;48483;44.640;7.494;2023-04-07T07:29:45;25.60;;;17.10;;
39956;SDS011;48483;44.640;7.494;2023-04-07T07:32:11;21.83;;;16.55;;
39956;SDS011;48483;44.640;7.494;2023-04-07T07:34:37;24.98;;;18.27;;
39956;SDS011;48483;44.640;7.494;2023-04-07T07:37:04;21.63;;;16.02;;
39956;SDS011;48483;44.640;7.494;2023-04-07T07:39:31;22.15;;;16.60;;
39956;SDS011;48483;44.640;7.494;2023-04-07T07:41:57;22.08;;;14.88;;
39956;SDS011;48483;44.640;7.494;2023-04-07T07:44:25;23.65;;;16.35;;
39956;SDS011;48483;44.640;7.494;2023-04-07T07:46:51;25.85;;;18.77;;
39956;SDS011;48483;44.640;7.494;2023-04-07T07:49:18;25.88;;;19.20;;
39956;SDS011;48483;44.640;7.494;2023-04-07T07:51:45;24.63;;;17.02;;
39956;SDS011;48483;44.640;7.494;2023-04-07T07:54:12;23.52;;;16.63;;
39956;SDS011;48483;44.640;7.494;2023-04-07T07:56:38;24.20;;;17.77;;
39956;SDS011;48483;44.640;7.494;2023-04-07T07:59:05;24.25;;;17.38;;
39956;SDS011;48483;44.640;7.494;2023-04-07T08:01:33;27.08;;;18.70;;
39956;SDS011;48483;44.640;7.494;2023-04-07T08:04:00;28.05;;;19.58;;
39956;SDS011;48483;44.640;7.494;2023-04-07T08:06:27;27.70;;;18.67;;
39956;SDS011;48483;44.640;7.494;2023-04-07T08:08:56;25.13;;;19.35;;
39956;SDS011;48483;44.640;7.494;2023-04-07T08:11:23;27.30;;;19.52;;
39956;SDS011;48483;44.640;7.494;2023-04-07T08:13:50;28.52;;;19.58;;
39956;SDS011;48483;44.640;7.494;2023-04-07T08:16:18;27.40;;;19.58;;
39956;SDS011;48483;44.640;7.494;2023-04-07T08:18:48;25.55;;;18.95;;
39956;SDS011;48483;44.640;7.494;2023-04-07T08:21:14;25.63;;;20.20;;
39956;SDS011;48483;44.640;7.494;2023-04-07T08:23:41;27.13;;;19.48;;
39956;SDS011;48483;44.640;7.494;2023-04-07T08:26:08;38.05;;;20.45;;
39956;SDS011;48483;44.640;7.494;2023-04-07T08:28:35;28.40;;;20.42;;
39956;SDS011;48483;44.640;7.494;2023-04-07T08:31:01;31.23;;;19.80;;
39956;SDS011;48483;44.640;7.494;2023-04-07T08:33:28;25.98;;;20.23;;
39956;SDS011;48483;44.640;7.494;2023-04-07T08:35:56;30.95;;;20.25;;
39956;SDS011;48483;44.640;7.494;2023-04-07T08:38:23;29.92;;;20.33;;
39956;SDS011;48483;44.640;7.494;2023-04-07T08:40:51;26.73;;;20.33;;
39956;SDS011;48483;44.640;7.494;2023-04-07T08:43:23;28.70;;;20.83;;
39956;SDS011;48483;44.640;7.494;2023-04-07T08:45:51;37.60;;;22.30;;
39956;SDS011;48483;44.640;7.494;2023-04-07T08:48:21;36.13;;;24.00;;
39956;SDS011;48483;44.640;7.494;2023-04-07T08:50:52;32.47;;;23.30;;
39956;SDS011;48483;44.640;7.494;2023-04-07T08:53:22;32.38;;;21.30;;
39956;SDS011;48483;44.640;7.494;2023-04-07T08:55:52;29.58;;;21.65;;
39956;SDS011;48483;44.640;7.494;2023-04-07T08:58:20;31.02;;;22.33;;
39956;SDS011;48483;44.640;7.494;2023-04-07T09:00:47;30.35;;;22.58;;
39956;SDS011;48483;44.640;7.494;2023-04-07T09:03:15;30.50;;;22.23;;
39956;SDS011;48483;44.640;7.494;2023-04-07T09:05:42;29.85;;;22.60;;
39956;SDS011;48483;44.640;7.494;2023-04-07T09:08:10;28.90;;;21.75;;
39956;SDS011;48483;44.640;7.494;2023-04-07T09:10:39;25.08;;;19.13;;
39956;SDS011;48483;44.640;7.494;2023-04-07T09:13:05;26.63;;;19.83;;
39956;SDS011;48483;44.640;7.494;2023-04-07T09:15:32;23.95;;;18.17;;
39956;SDS011;48483;44.640;7.494;2023-04-07T09:17:59;26.00;;;18.77;;
39956;SDS011;48483;44.640;7.494;2023-04-07T09:20:25;24.85;;;19.38;;
39956;SDS011;48483;44.640;7.494;2023-04-07T09:22:52;27.15;;;19.27;;
39956;SDS011;48483;44.640;7.494;2023-04-07T09:25:19;23.85;;;17.55;;
39956;SDS011;48483;44.640;7.494;2023-04-07T09:27:56;27.45;;;19.38;;
39956;SDS011;48483;44.640;7.494;2023-04-07T09:30:24;24.53;;;18.53;;
39956;SDS011;48483;44.640;7.494;2023-04-07T09:32:51;23.15;;;18.08;;
39956;SDS011;48483;44.640;7.494;2023-04-07T09:35:18;24.05;;;16.63;;
39956;SDS011;48483;44.640;7.494;2023-04-07T09:37:59;22.15;;;17.38;;
39956;SDS011;48483;44.640;7.494;2023-04-07T09:40:27;25.23;;;16.93;;
39956;SDS011;48483;44.640;7.494;2023-04-07T09:42:54;20.20;;;16.15;;
39956;SDS011;48483;44.640;7.494;2023-04-07T09:45:26;19.45;;;17.35;;
39956;SDS011;48483;44.640;7.494;2023-04-07T09:47:53;23.20;;;17.52;;
39956;SDS011;48483;44.640;7.494;2023-04-07T09:50:32;22.65;;;15.75;;
39956;SDS011;48483;44.640;7.494;2023-04-07T09:53:02;19.13;;;16.17;;
39956;SDS011;48483;44.640;7.494;2023-04-07T09:55:29;24.20;;;15.90;;
39956;SDS011;48483;44.640;7.494;2023-04-07T09:57:56;20.90;;;16.55;;
39956;SDS011;48483;44.640;7.494;2023-04-07T10:00:23;19.83;;;15.13;;
39956;SDS011;48483;44.640;7.494;2023-04-07T10:02:51;21.35;;;16.70;;
39956;SDS011;48483;44.640;7.494;2023-04-07T10:05:19;22.85;;;15.23;;
39956;SDS011;48483;44.640;7.494;2023-04-07T10:07:48;19.27;;;15.45;;
39956;SDS011;48483;44.640;7.494;2023-04-07T10:10:15;17.15;;;15.02;;
39956;SDS011;48483;44.640;7.494;2023-04-07T10:12:42;17.90;;;15.40;;
39956;SDS011;48483;44.640;7.494;2023-04-07T10:17:38;18.77;;;14.80;;
39956;SDS011;48483;44.640;7.494;2023-04-07T10:20:08;21.63;;;16.23;;
39956;SDS011;48483;44.640;7.494;2023-04-07T10:22:36;17.17;;;15.07;;
39956;SDS011;48483;44.640;7.494;2023-04-07T10:25:06;18.52;;;14.15;;
39956;SDS011;48483;44.640;7.494;2023-04-07T10:27:38;16.58;;;14.73;;
39956;SDS011;48483;44.640;7.494;2023-04-07T10:30:16;19.75;;;14.52;;
39956;SDS011;48483;44.640;7.494;2023-04-07T10:32:45;16.83;;;15.02;;
39956;SDS011;48483;44.640;7.494;2023-04-07T10:35:14;17.20;;;14.07;;
39956;SDS011;48483;44.640;7.494;2023-04-07T10:37:47;16.92;;;14.20;;
39956;SDS011;48483;44.640;7.494;2023-04-07T10:40:38;17.45;;;14.45;;
39956;SDS011;48483;44.640;7.494;2023-04-07T10:43:06;15.45;;;12.35;;
39956;SDS011;48483;44.640;7.494;2023-04-07T10:45:54;16.08;;;14.18;;
39956;SDS011;48483;44.640;7.494;2023-04-07T10:48:24;15.73;;;11.98;;
39956;SDS011;48483;44.640;7.494;2023-04-07T10:59:36;16.15;;;13.40;;
39956;SDS011;48483;44.640;7.494;2023-04-07T11:04:57;14.27;;;12.77;;
39956;SDS011;48483;44.640;7.494;2023-04-07T11:10:10;15.65;;;11.57;;
39956;SDS011;48483;44.640;7.494;2023-04-07T11:12:38;14.38;;;12.20;;
39956;SDS011;48483;44.640;7.494;2023-04-07T11:15:20;15.73;;;12.77;;
39956;SDS011;48483;44.640;7.494;2023-04-07T11:20:40;14.18;;;12.07;;
39956;SDS011;48483;44.640;7.494;2023-04-07T11:23:08;14.18;;;12.25;;
39956;SDS011;48483;44.640;7.494;2023-04-07T11:25:35;15.98;;;11.00;;
39956;SDS011;48483;44.640;7.494;2023-04-07T11:28:02;14.18;;;12.68;;
39956;SDS011;48483;44.640;7.494;2023-04-07T11:30:30;14.63;;;12.18;;
39956;SDS011;48483;44.640;7.494;2023-04-07T11:32:56;13.45;;;11.07;;
39956;SDS011;48483;44.640;7.494;2023-04-07T11:35:23;14.70;;;12.40;;
39956;SDS011;48483;44.640;7.494;2023-04-07T11:37:55;17.58;;;12.05;;
39956;SDS011;48483;44.640;7.494;2023-04-07T11:40:34;12.48;;;10.98;;
39956;SDS011;48483;44.640;7.494;2023-04-07T11:43:02;16.70;;;11.55;;
39956;SDS011;48483;44.640;7.494;2023-04-07T11:45:41;14.32;;;11.65;;
39956;SDS011;48483;44.640;7.494;2023-04-07T11:50:53;10.48;;;9.43;;
39956;SDS011;48483;44.640;7.494;2023-04-07T11:53:24;13.23;;;10.80;;
39956;SDS011;48483;44.640;7.494;2023-04-07T11:55:59;15.38;;;10.10;;
39956;SDS011;48483;44.640;7.494;2023-04-07T11:58:30;12.88;;;11.48;;
39956;SDS011;48483;44.640;7.494;2023-04-07T12:00:57;16.58;;;12.38;;
39956;SDS011;48483;44.640;7.494;2023-04-07T12:03:30;15.32;;;11.85;;
39956;SDS011;48483;44.640;7.494;2023-04-07T12:05:56;15.68;;;12.63;;
39956;SDS011;48483;44.640;7.494;2023-04-07T12:08:35;14.30;;;11.50;;
39956;SDS011;48483;44.640;7.494;2023-04-07T12:11:04;13.95;;;11.63;;
39956;SDS011;48483;44.640;7.494;2023-04-07T12:13:31;13.48;;;12.05;;
39956;SDS011;48483;44.640;7.494;2023-04-07T12:15:58;12.73;;;10.82;;
39956;SDS011;48483;44.640;7.494;2023-04-07T12:18:24;14.80;;;11.98;;
39956;SDS011;48483;44.640;7.494;2023-04-07T12:20:51;11.50;;;9.65;;
39956;SDS011;48483;44.640;7.494;2023-04-07T12:23:18;12.52;;;9.93;;
39956;SDS011;48483;44.640;7.494;2023-04-07T12:25:45;14.90;;;10.80;;
39956;SDS011;48483;44.640;7.494;2023-04-07T12:28:13;12.07;;;10.63;;
39956;SDS011;48483;44.640;7.494;2023-04-07T12:30:39;12.82;;;10.40;;
39956;SDS011;48483;44.640;7.494;2023-04-07T12:33:07;15.18;;;11.18;;
39956;SDS011;48483;44.640;7.494;2023-04-07T12:35:33;13.98;;;11.27;;
39956;SDS011;48483;44.640;7.494;2023-04-07T12:38:00;13.13;;;10.45;;
39956;SDS011;48483;44.640;7.494;2023-04-07T12:40:27;11.65;;;10.43;;
39956;SDS011;48483;44.640;7.494;2023-04-07T12:42:54;11.73;;;8.70;;
39956;SDS011;48483;44.640;7.494;2023-04-07T12:45:24;10.82;;;9.57;;
39956;SDS011;48483;44.640;7.494;2023-04-07T12:47:51;11.02;;;9.00;;
39956;SDS011;48483;44.640;7.494;2023-04-07T12:50:17;13.13;;;7.70;;
39956;SDS011;48483;44.640;7.494;2023-04-07T12:52:44;10.93;;;8.45;;
39956;SDS011;48483;44.640;7.494;2023-04-07T12:55:11;12.05;;;7.95;;
39956;SDS011;48483;44.640;7.494;2023-04-07T12:57:39;9.80;;;8.00;;
39956;SDS011;48483;44.640;7.494;2023-04-07T13:00:06;10.20;;;7.93;;
39956;SDS011;48483;44.640;7.494;2023-04-07T13:02:34;8.68;;;7.53;;
39956;SDS011;48483;44.640;7.494;2023-04-07T13:05:04;9.38;;;7.63;;
39956;SDS011;48483;44.640;7.494;2023-04-07T13:07:30;9.55;;;7.25;;
39956;SDS011;48483;44.640;7.494;2023-04-07T13:09:59;8.77;;;7.20;;
39956;SDS011;48483;44.640;7.494;2023-04-07T13:12:26;14.13;;;8.45;;
39956;SDS011;48483;44.640;7.494;2023-04-07T13:14:53;9.02;;;8.13;;
39956;SDS011;48483;44.640;7.494;2023-04-07T13:17:19;12.27;;;8.23;;
39956;SDS011;48483;44.640;7.494;2023-04-07T13:19:47;8.82;;;7.10;;
39956;SDS011;48483;44.640;7.494;2023-04-07T13:22:14;10.50;;;7.65;;
39956;SDS011;48483;44.640;7.494;2023-04-07T13:24:42;7.65;;;6.30;;
39956;SDS011;48483;44.640;7.494;2023-04-07T13:27:09;8.15;;;6.32;;
39956;SDS011;48483;44.640;7.494;2023-04-07T13:29:35;7.90;;;6.55;;
39956;SDS011;48483;44.640;7.494;2023-04-07T13:32:05;13.23;;;7.50;;
39956;SDS011;48483;44.640;7.494;2023-04-07T13:34:32;8.30;;;6.90;;
39956;SDS011;48483;44.640;7.494;2023-04-07T13:37:01;8.95;;;7.57;;
39956;SDS011;48483;44.640;7.494;2023-04-07T13:39:28;9.43;;;7.95;;
39956;SDS011;48483;44.640;7.494;2023-04-07T13:41:54;11.88;;;8.80;;
39956;SDS011;48483;44.640;7.494;2023-04-07T13:44:22;10.27;;;9.05;;
39956;SDS011;48483;44.640;7.494;2023-04-07T13:46:49;11.55;;;8.10;;
39956;SDS011;48483;44.640;7.494;2023-04-07T13:49:15;10.05;;;8.38;;
39956;SDS011;48483;44.640;7.494;2023-04-07T13:51:42;12.80;;;10.30;;
39956;SDS011;48483;44.640;7.494;2023-04-07T13:54:10;11.40;;;10.20;;
39956;SDS011;48483;44.640;7.494;2023-04-07T13:56:36;14.82;;;10.75;;
39956;SDS011;48483;44.640;7.494;2023-04-07T13:59:03;14.57;;;11.55;;
39956;SDS011;48483;44.640;7.494;2023-04-07T14:01:30;13.35;;;11.48;;
39956;SDS011;48483;44.640;7.494;2023-04-07T14:03:58;14.60;;;10.60;;
39956;SDS011;48483;44.640;7.494;2023-04-07T14:06:25;11.40;;;9.63;;
39956;SDS011;48483;44.640;7.494;2023-04-07T14:08:51;11.13;;;9.30;;
39956;SDS011;48483;44.640;7.494;2023-04-07T14:11:20;11.02;;;9.25;;
39956;SDS011;48483;44.640;7.494;2023-04-07T14:13:47;12.52;;;10.02;;
39956;SDS011;48483;44.640;7.494;2023-04-07T14:16:14;12.48;;;9.45;;
39956;SDS011;48483;44.640;7.494;2023-04-07T14:18:41;12.85;;;7.80;;
39956;SDS011;48483;44.640;7.494;2023-04-07T14:21:08;9.85;;;7.80;;
39956;SDS011;48483;44.640;7.494;2023-04-07T14:23:35;11.20;;;7.05;;
39956;SDS011;48483;44.640;7.494;2023-04-07T14:26:02;7.10;;;5.43;;
39956;SDS011;48483;44.640;7.494;2023-04-07T14:28:30;6.35;;;5.22;;
39956;SDS011;48483;44.640;7.494;2023-04-07T14:30:57;11.13;;;4.88;;
39956;SDS011;48483;44.640;7.494;2023-04-07T14:33:23;10.30;;;6.07;;
39956;SDS011;48483;44.640;7.494;2023-04-07T14:35:50;8.48;;;5.93;;
39956;SDS011;48483;44.640;7.494;2023-04-07T14:38:17;8.55;;;6.60;;
39956;SDS011;48483;44.640;7.494;2023-04-07T14:40:48;8.48;;;5.05;;
39956;SDS011;48483;44.640;7.494;2023-04-07T14:43:15;11.70;;;5.25;;
39956;SDS011;48483;44.640;7.494;2023-04-07T14:45:46;9.25;;;4.97;;
39956;SDS011;48483;44.640;7.494;2023-04-07T14:48:12;7.65;;;5.63;;
39956;SDS011;48483;44.640;7.494;2023-04-07T14:50:39;7.85;;;5.45;;
39956;SDS011;48483;44.640;7.494;2023-04-07T14:53:06;6.70;;;5.13;;
39956;SDS011;48483;44.640;7.494;2023-04-07T14:55:32;8.88;;;4.40;;
39956;SDS011;48483;44.640;7.494;2023-04-07T14:57:59;7.15;;;4.47;;
39956;SDS011;48483;44.640;7.494;2023-04-07T15:00:25;6.03;;;4.03;;
39956;SDS011;48483;44.640;7.494;2023-04-07T15:02:54;7.10;;;3.83;;
39956;SDS011;48483;44.640;7.494;2023-04-07T15:05:21;9.52;;;4.07;;
39956;SDS011;48483;44.640;7.494;2023-04-07T15:07:48;10.52;;;3.65;;
39956;SDS011;48483;44.640;7.494;2023-04-07T15:10:17;8.20;;;4.25;;
39956;SDS011;48483;44.640;7.494;2023-04-07T15:12:44;6.90;;;4.20;;
39956;SDS011;48483;44.640;7.494;2023-04-07T15:15:11;5.75;;;4.25;;
39956;SDS011;48483;44.640;7.494;2023-04-07T15:17:38;7.55;;;3.60;;
39956;SDS011;48483;44.640;7.494;2023-04-07T15:20:07;5.82;;;3.70;;
39956;SDS011;48483;44.640;7.494;2023-04-07T15:22:34;5.20;;;2.97;;
39956;SDS011;48483;44.640;7.494;2023-04-07T15:25:01;4.47;;;2.33;;
39956;SDS011;48483;44.640;7.494;2023-04-07T15:27:28;4.53;;;3.28;;
39956;SDS011;48483;44.640;7.494;2023-04-07T15:29:55;4.82;;;2.70;;
39956;SDS011;48483;44.640;7.494;2023-04-07T15:32:21;4.35;;;3.33;;
39956;SDS011;48483;44.640;7.494;2023-04-07T15:34:48;4.80;;;2.92;;
39956;SDS011;48483;44.640;7.494;2023-04-07T15:37:16;6.93;;;3.50;;
39956;SDS011;48483;44.640;7.494;2023-04-07T15:39:44;4.43;;;3.50;;
39956;SDS011;48483;44.640;7.494;2023-04-07T15:42:10;5.30;;;3.50;;
39956;SDS011;48483;44.640;7.494;2023-04-07T15:44:37;3.47;;;2.80;;
39956;SDS011;48483;44.640;7.494;2023-04-07T15:47:04;4.95;;;2.90;;
39956;SDS011;48483;44.640;7.494;2023-04-07T15:49:31;6.65;;;3.08;;
39956;SDS011;48483;44.640;7.494;2023-04-07T15:51:58;5.03;;;3.40;;
39956;SDS011;48483;44.640;7.494;2023-04-07T15:54:26;4.93;;;3.22;;
39956;SDS011;48483;44.640;7.494;2023-04-07T15:56:52;8.57;;;5.18;;
39956;SDS011;48483;44.640;7.494;2023-04-07T15:59:19;10.57;;;6.30;;